Time;durP1;ratioP1;P1;durP2;ratioP2;P2;SDS_P1;SDS_P2;PMS_P1;PMS_P2;Temp;Humidity;BMP_temperature;BMP_pressure;BME280_temperature;BME280_humidity;BME280_pressure;Samples;Min_cycle;Max_cycle;Signal;HPM_P1;HPM_P2
2023/08/11 00:01:29;;;;;;;10.43;7.60;;;14.80;54.10;;;;;;4959090;28;20526;-61
2023/08/11 00:03:56;;;;;;;8.13;7.40;;;14.80;99.90;;;;;;4959008;29;20473;-61
2023/08/11 00:06:25;;;;;;;9.03;7.80;;;14.80;92.20;;;;;;4968754;28;20918;-61
2023/08/11 00:08:54;;;;;;;10.57;7.77;;;14.80;16.40;;;;;;4978493;28;20903;-60
2023/08/11 00:11:22;;;;;;;8.30;7.60;;;14.70;3.50;;;;;;4964363;28;20494;-60
2023/08/11 00:13:49;;;;;;;7.77;7.07;;;14.70;99.90;;;;;;4958670;29;20474;-60
2023/08/11 00:16:17;;;;;;;12.00;7.37;;;14.60;99.90;;;;;;4963705;28;20910;-60
2023/08/11 00:18:44;;;;;;;9.00;8.10;;;14.50;99.90;;;;;;4978755;28;20465;-61
2023/08/11 00:21:12;;;;;;;7.90;7.07;;;14.50;99.90;;;;;;4977531;28;20549;-61
2023/08/11 00:23:42;;;;;;;9.83;7.27;;;14.40;99.90;;;;;;4978391;28;20549;-61
2023/08/11 00:26:11;;;;;;;7.67;6.97;;;14.50;99.90;;;;;;4970096;28;20490;-60
2023/08/11 00:28:38;;;;;;;9.30;8.37;;;14.40;1.00;;;;;;4974760;28;20485;-60
2023/08/11 00:31:08;;;;;;;8.57;7.67;;;14.50;1.00;;;;;;4972028;28;20582;-60
2023/08/11 00:33:36;;;;;;;9.17;7.80;;;14.40;1.00;;;;;;4958984;29;20963;-61
2023/08/11 00:36:03;;;;;;;11.40;7.30;;;14.30;1.00;;;;;;4956731;29;20521;-58
2023/08/11 00:38:38;;;;;;;10.30;8.10;;;14.30;99.90;;;;;;4970622;28;20625;-60
2023/08/11 00:41:06;;;;;;;8.83;7.93;;;14.30;99.90;;;;;;4976199;28;20534;-60
2023/08/11 00:43:34;;;;;;;8.23;7.37;;;14.30;1.00;;;;;;4976441;28;20504;-60
2023/08/11 00:46:08;;;;;;;7.30;6.60;;;14.30;1.00;;;;;;4976793;28;20466;-60
2023/08/11 00:48:35;;;;;;;9.50;7.40;;;14.30;99.90;;;;;;4965248;28;20471;-61
2023/08/11 00:51:05;;;;;;;10.50;7.60;;;14.30;99.90;;;;;;4958505;28;20486;-61
2023/08/11 00:53:33;;;;;;;8.13;6.80;;;14.30;1.00;;;;;;4958247;28;20540;-61
2023/08/11 00:56:01;;;;;;;8.00;7.20;;;14.30;1.00;;;;;;4958508;29;20473;-61
2023/08/11 00:58:29;;;;;;;7.40;6.67;;;14.20;1.00;;;;;;4959891;28;20745;-60
2023/08/11 01:00:58;;;;;;;7.30;6.60;;;14.20;1.00;;;;;;4976678;28;20469;-61
2023/08/11 01:03:26;;;;;;;8.27;7.00;;;14.20;99.90;;;;;;4981673;28;20466;-61
2023/08/11 01:06:02;;;;;;;8.17;7.17;;;14.20;1.00;;;;;;4981513;28;20822;-61
2023/08/11 01:08:35;;;;;;;8.27;6.60;;;14.10;99.90;;;;;;4982101;28;20472;-61
2023/08/11 01:11:15;;;;;;;7.00;5.80;;;14.20;1.00;;;;;;4964608;28;20589;-61
2023/08/11 01:13:54;;;;;;;12.50;7.27;;;14.20;99.90;;;;;;4965994;28;20520;-61
2023/08/11 01:16:23;;;;;;;9.63;7.23;;;14.10;99.90;;;;;;4981738;28;20841;-60
2023/08/11 01:18:51;;;;;;;8.07;6.90;;;14.10;1.00;;;;;;4982061;28;20466;-61
2023/08/11 01:21:20;;;;;;;9.10;6.77;;;14.10;99.90;;;;;;4972098;28;20548;-60
2023/08/11 01:23:49;;;;;;;7.83;6.83;;;14.10;99.90;;;;;;4962516;28;20505;-61
2023/08/11 01:26:17;;;;;;;7.83;6.90;;;14.00;99.90;;;;;;4978947;28;20470;-61
2023/08/11 01:28:44;;;;;;;9.07;6.83;;;14.00;1.00;;;;;;4981690;28;20501;-61
2023/08/11 01:31:11;;;;;;;8.13;7.37;;;14.00;1.00;;;;;;4970935;28;20576;-61
2023/08/11 01:33:38;;;;;;;7.83;6.97;;;13.90;6.30;;;;;;4961675;28;20502;-60
2023/08/11 01:36:08;;;;;;;7.93;7.17;;;13.90;83.20;;;;;;4962055;29;20466;-61
2023/08/11 01:38:35;;;;;;;12.13;6.13;;;14.00;99.90;;;;;;4961713;29;20466;-61
2023/08/11 01:41:04;;;;;;;8.07;6.80;;;14.00;7.20;;;;;;4965628;28;20485;-61
2023/08/11 01:43:31;;;;;;;8.70;6.73;;;13.90;12.00;;;;;;4981245;28;20887;-61
2023/08/11 01:45:59;;;;;;;13.23;6.10;;;13.80;99.90;;;;;;4980675;28;20505;-61
2023/08/11 01:48:28;;;;;;;7.57;6.87;;;13.90;99.90;;;;;;4980999;28;20461;-61
2023/08/11 01:50:55;;;;;;;7.30;6.50;;;13.80;1.00;;;;;;4980695;28;20547;-60
2023/08/11 01:53:23;;;;;;;9.70;6.93;;;13.80;1.00;;;;;;4979261;28;20489;-61
2023/08/11 01:55:51;;;;;;;7.90;7.10;;;13.70;99.90;;;;;;4980762;28;20461;-61
2023/08/11 01:58:20;;;;;;;9.70;6.67;;;13.80;99.90;;;;;;4979052;28;20919;-61
2023/08/11 02:00:47;;;;;;;7.53;6.73;;;13.70;1.00;;;;;;4980635;28;20498;-61
2023/08/11 02:03:14;;;;;;;7.80;7.20;;;13.60;1.00;;;;;;4980439;28;20553;-61
2023/08/11 02:05:41;;;;;;;10.33;7.50;;;13.60;99.90;;;;;;4980631;28;20824;-61
2023/08/11 02:08:09;;;;;;;9.90;6.97;;;13.60;63.60;;;;;;4969763;28;20888;-61
2023/08/11 02:10:38;;;;;;;7.80;6.80;;;13.60;99.90;;;;;;4961062;28;20810;-60
2023/08/11 02:13:05;;;;;;;8.37;7.40;;;13.60;35.30;;;;;;4960279;28;20529;-61
2023/08/11 02:15:34;;;;;;;8.73;7.70;;;13.60;34.70;;;;;;4961159;29;20947;-61
2023/08/11 02:18:01;;;;;;;10.20;7.37;;;13.60;1.00;;;;;;4965473;28;20557;-61
2023/08/11 02:20:29;;;;;;;7.90;7.00;;;13.60;1.00;;;;;;4980475;28;20469;-61
2023/08/11 02:22:56;;;;;;;7.77;7.07;;;13.70;99.90;;;;;;4980179;28;20494;-61
2023/08/11 02:25:25;;;;;;;10.50;7.40;;;13.60;1.00;;;;;;4980221;28;20903;-60
2023/08/11 02:27:53;;;;;;;7.40;6.80;;;13.60;99.90;;;;;;4979420;28;20798;-61
2023/08/11 02:30:21;;;;;;;9.93;7.50;;;13.60;99.90;;;;;;4976565;28;20557;-61
2023/08/11 02:32:50;;;;;;;9.47;7.07;;;13.60;99.90;;;;;;4960600;29;20518;-61
2023/08/11 02:35:18;;;;;;;9.00;7.40;;;13.60;1.00;;;;;;4960968;29;20797;-61
2023/08/11 02:37:45;;;;;;;10.17;8.07;;;13.50;1.00;;;;;;4960579;29;20470;-61
2023/08/11 02:40:12;;;;;;;8.60;7.67;;;13.50;1.00;;;;;;4974494;28;20469;-61
2023/08/11 02:42:44;;;;;;;11.00;8.50;;;13.50;99.90;;;;;;4980195;28;20505;-60
2023/08/11 02:45:12;;;;;;;11.77;8.03;;;13.50;1.00;;;;;;4960916;28;20472;-61
2023/08/11 02:47:40;;;;;;;8.57;7.77;;;13.50;1.00;;;;;;4960597;28;20920;-61
2023/08/11 02:50:10;;;;;;;10.83;8.17;;;13.50;99.90;;;;;;4959913;29;20471;-61
2023/08/11 02:52:38;;;;;;;8.60;7.37;;;13.50;1.00;;;;;;4960053;28;20958;-61
2023/08/11 02:55:06;;;;;;;8.53;7.50;;;13.40;99.90;;;;;;4960425;28;20888;-61
2023/08/11 02:57:33;;;;;;;10.27;7.60;;;13.40;99.90;;;;;;4966944;28;20576;-61
2023/08/11 03:00:01;;;;;;;9.70;8.10;;;13.50;99.90;;;;;;4979552;28;20544;-61
2023/08/11 03:02:28;;;;;;;8.20;7.30;;;13.50;1.00;;;;;;4979787;28;20954;-61
2023/08/11 03:04:55;;;;;;;16.97;8.20;;;13.50;58.60;;;;;;4979789;28;20462;-61
2023/08/11 03:07:24;;;;;;;7.47;6.77;;;13.40;99.90;;;;;;4977128;28;20558;-61
2023/08/11 03:09:51;;;;;;;7.70;6.93;;;13.40;99.90;;;;;;4960255;28;20533;-60
2023/08/11 03:12:18;;;;;;;8.10;7.30;;;13.40;1.00;;;;;;4960072;28;20500;-61
2023/08/11 03:14:45;;;;;;;7.57;6.80;;;13.40;99.90;;;;;;4960272;29;20557;-61
2023/08/11 03:17:13;;;;;;;9.30;7.00;;;13.50;99.90;;;;;;4960234;29;20820;-61
2023/08/11 03:19:40;;;;;;;7.10;6.40;;;13.50;99.90;;;;;;4975165;28;20494;-61
2023/08/11 03:22:07;;;;;;;7.80;6.80;;;13.50;1.00;;;;;;4978810;28;20464;-61
2023/08/11 03:24:36;;;;;;;8.10;6.57;;;13.50;99.90;;;;;;4978992;28;20471;-61
2023/08/11 03:27:03;;;;;;;8.77;6.93;;;13.50;1.00;;;;;;4979264;28;20557;-61
2023/08/11 03:29:31;;;;;;;8.60;6.47;;;13.50;1.00;;;;;;4968160;28;20525;-61
2023/08/11 03:31:58;;;;;;;6.30;5.70;;;13.60;99.90;;;;;;4959983;28;20940;-60
2023/08/11 03:34:25;;;;;;;7.63;6.07;;;13.60;97.50;;;;;;4959715;29;20467;-61
2023/08/11 03:36:53;;;;;;;6.80;6.07;;;13.70;6.40;;;;;;4959768;29;20463;-61
2023/08/11 03:39:20;;;;;;;8.83;6.07;;;13.80;99.90;;;;;;4964080;28;20501;-61
2023/08/11 03:41:49;;;;;;;7.03;6.10;;;13.80;1.00;;;;;;4978579;28;20466;-61
2023/08/11 03:44:17;;;;;;;7.50;5.40;;;13.80;1.00;;;;;;4978642;28;20778;-61
2023/08/11 03:46:44;;;;;;;5.70;5.10;;;13.60;21.60;;;;;;4979025;28;20464;-61
2023/08/11 03:49:12;;;;;;;5.90;4.70;;;13.60;99.90;;;;;;4978401;28;20501;-61
2023/08/11 03:51:39;;;;;;;5.93;4.37;;;13.70;99.90;;;;;;4959107;28;20505;-61
2023/08/11 03:54:06;;;;;;;5.30;4.73;;;13.70;99.90;;;;;;4959006;28;20924;-61
2023/08/11 03:56:34;;;;;;;6.57;4.50;;;13.70;99.90;;;;;;4959493;29;20873;-61
2023/08/11 03:59:02;;;;;;;7.30;5.13;;;13.70;1.00;;;;;;4959612;29;20463;-61
2023/08/11 04:01:30;;;;;;;6.00;5.00;;;13.80;1.00;;;;;;4958757;28;20932;-61
2023/08/11 04:03:57;;;;;;;7.00;4.97;;;13.80;1.00;;;;;;4958895;28;20470;-61
2023/08/11 04:06:31;;;;;;;5.67;4.90;;;13.90;99.90;;;;;;4959275;29;20515;-61
2023/08/11 04:08:59;;;;;;;5.70;4.80;;;13.90;1.00;;;;;;4964457;28;20484;-61
2023/08/11 04:11:27;;;;;;;6.00;5.30;;;13.90;1.00;;;;;;4960533;28;21014;-61
2023/08/11 04:13:54;;;;;;;8.80;5.57;;;13.90;99.90;;;;;;4968315;28;20462;-61
2023/08/11 04:16:23;;;;;;;7.30;5.20;;;13.90;99.90;;;;;;4963849;28;20769;-61
2023/08/11 04:18:50;;;;;;;8.70;5.27;;;14.00;99.90;;;;;;4961485;28;20958;-61
2023/08/11 04:21:17;;;;;;;5.77;4.93;;;14.00;1.00;;;;;;4968319;28;20579;-61
2023/08/11 04:23:45;;;;;;;5.50;5.00;;;14.00;1.00;;;;;;4965395;28;20477;-60
2023/08/11 04:26:12;;;;;;;7.57;4.63;;;14.00;1.00;;;;;;4963601;28;20517;-61
2023/08/11 04:28:43;;;;;;;6.30;4.90;;;14.10;1.00;;;;;;4968601;28;20457;-61
2023/08/11 04:31:10;;;;;;;6.67;5.13;;;14.10;99.90;;;;;;4961751;28;20585;-61
2023/08/11 04:33:39;;;;;;;6.03;4.40;;;14.10;1.00;;;;;;4962553;28;20905;-61
2023/08/11 04:36:06;;;;;;;9.40;4.70;;;14.10;1.00;;;;;;4955187;29;20467;-61
2023/08/11 04:38:33;;;;;;;5.53;4.57;;;14.10;1.00;;;;;;4960822;28;20475;-61
2023/08/11 04:41:02;;;;;;;8.63;5.73;;;14.10;1.00;;;;;;4965460;28;20772;-61
2023/08/11 04:43:30;;;;;;;4.93;4.33;;;14.20;1.00;;;;;;4969719;28;20892;-61
2023/08/11 04:45:57;;;;;;;5.37;4.87;;;14.30;99.90;;;;;;4975161;28;20466;-61
2023/08/11 04:48:24;;;;;;;9.40;5.40;;;14.30;99.90;;;;;;4956722;28;20479;-62
2023/08/11 04:50:58;;;;;;;7.00;4.90;;;14.30;99.90;;;;;;4955707;29;20820;-61
2023/08/11 04:53:26;;;;;;;6.43;5.03;;;14.40;99.90;;;;;;4954910;28;20486;-61
2023/08/11 04:55:53;;;;;;;5.23;4.73;;;14.40;99.90;;;;;;4955669;29;20557;-61
2023/08/11 04:58:20;;;;;;;5.50;4.40;;;14.40;99.90;;;;;;4969890;28;20466;-61
2023/08/11 05:00:51;;;;;;;7.83;4.03;;;14.50;99.90;;;;;;4962604;28;20851;-61
2023/08/11 05:03:19;;;;;;;7.70;4.77;;;14.60;99.90;;;;;;4955950;28;20502;-61
2023/08/11 05:05:46;;;;;;;6.17;4.47;;;14.70;1.00;;;;;;4964486;28;20767;-61
2023/08/11 05:08:16;;;;;;;8.90;4.67;;;14.80;1.00;;;;;;4977774;28;20755;-61
2023/08/11 05:10:43;;;;;;;5.43;4.43;;;14.80;1.00;;;;;;4977449;28;20477;-61
2023/08/11 05:13:10;;;;;;;5.40;3.83;;;14.90;1.00;;;;;;4977800;28;20493;-61
2023/08/11 05:15:38;;;;;;;4.90;4.40;;;15.00;1.00;;;;;;4958166;28;20467;-61
2023/08/11 05:18:08;;;;;;;7.00;3.83;;;15.10;99.90;;;;;;4962406;28;20473;-61
2023/08/11 05:20:35;;;;;;;7.03;4.40;;;15.20;99.90;;;;;;4978040;28;20472;-61
2023/08/11 05:23:03;;;;;;;4.70;3.87;;;15.30;99.90;;;;;;4977691;28;20462;-64
2023/08/11 05:25:32;;;;;;;6.60;3.77;;;15.30;99.90;;;;;;4976560;28;20549;-64
2023/08/11 05:27:59;;;;;;;6.07;3.90;;;15.40;99.90;;;;;;4959038;28;20522;-64
2023/08/11 05:30:28;;;;;;;4.53;3.23;;;15.50;99.90;;;;;;4958403;29;20824;-64
2023/08/11 05:32:58;;;;;;;5.00;3.97;;;15.70;99.90;;;;;;4958529;29;20501;-64
2023/08/11 05:35:26;;;;;;;5.07;3.63;;;15.70;99.90;;;;;;4963503;28;20501;-64
2023/08/11 05:37:53;;;;;;;5.20;4.40;;;15.80;99.90;;;;;;4976447;28;20929;-64
2023/08/11 05:40:21;;;;;;;6.07;3.97;;;15.80;99.90;;;;;;4976640;28;20489;-64
2023/08/11 05:42:49;;;;;;;4.47;3.50;;;16.00;77.50;;;;;;4977881;28;20516;-64
2023/08/11 05:45:17;;;;;;;5.63;3.67;;;16.00;96.70;;;;;;4966042;28;20553;-64
2023/08/11 05:47:44;;;;;;;5.43;3.27;;;16.10;99.90;;;;;;4959049;28;20530;-65
2023/08/11 05:50:11;;;;;;;7.90;3.67;;;16.20;21.40;;;;;;4971499;28;20576;-64
2023/08/11 05:52:38;;;;;;;6.20;4.67;;;16.30;1.00;;;;;;4980144;28;20501;-63
2023/08/11 05:55:07;;;;;;;7.30;3.43;;;16.40;1.00;;;;;;4980395;28;20564;-64
2023/08/11 05:57:34;;;;;;;7.50;4.10;;;16.50;29.70;;;;;;4980454;28;20472;-65
2023/08/11 06:00:03;;;;;;;6.60;4.30;;;16.50;1.00;;;;;;4969644;28;20927;-65
2023/08/11 06:02:31;;;;;;;9.33;3.67;;;16.60;1.00;;;;;;4957796;28;20481;-64
2023/08/11 06:04:58;;;;;;;5.97;3.87;;;16.70;3.40;;;;;;4958604;28;21017;-64
2023/08/11 06:07:25;;;;;;;4.10;3.70;;;16.80;1.00;;;;;;4958737;28;20912;-64
2023/08/11 06:09:53;;;;;;;4.00;3.60;;;17.00;1.00;;;;;;4976598;28;20474;-64
2023/08/11 06:12:20;;;;;;;6.00;3.30;;;17.10;1.00;;;;;;4978287;28;20954;-64
2023/08/11 06:14:48;;;;;;;4.23;3.30;;;17.40;1.00;;;;;;4978758;28;20458;-64
2023/08/11 06:17:17;;;;;;;3.80;3.37;;;17.60;40.20;;;;;;4978206;28;20537;-65
2023/08/11 06:19:44;;;;;;;7.00;4.60;;;17.80;1.00;;;;;;4980101;28;20516;-64
2023/08/11 06:22:12;;;;;;;4.70;3.53;;;18.10;1.00;;;;;;4965900;28;20470;-65
2023/08/11 06:24:39;;;;;;;4.60;3.50;;;18.30;1.00;;;;;;4960611;28;20536;-65
2023/08/11 06:27:07;;;;;;;7.70;2.70;;;18.50;1.00;;;;;;4961056;28;20495;-65
2023/08/11 06:29:34;;;;;;;3.67;3.10;;;18.60;1.00;;;;;;4961335;29;20463;-66
2023/08/11 06:32:04;;;;;;;4.43;3.53;;;18.80;1.00;;;;;;4969276;28;20494;-66
2023/08/11 06:34:36;;;;;;;5.40;3.40;;;19.10;1.00;;;;;;4980331;28;20963;-66
2023/08/11 06:37:03;;;;;;;5.47;3.40;;;19.30;1.00;;;;;;4980109;28;20686;-64
2023/08/11 06:39:30;;;;;;;4.90;3.77;;;19.50;1.00;;;;;;4960210;29;20470;-66
2023/08/11 06:41:58;;;;;;;4.60;3.10;;;19.70;1.00;;;;;;4960508;29;20499;-65
2023/08/11 06:44:25;;;;;;;3.83;3.33;;;19.90;1.00;;;;;;4960335;28;20466;-64
2023/08/11 06:46:52;;;;;;;4.63;3.27;;;20.00;1.00;;;;;;4964394;28;20469;-65
2023/08/11 06:49:20;;;;;;;4.90;3.40;;;20.20;1.00;;;;;;4971448;28;20505;-65
2023/08/11 06:51:48;;;;;;;4.93;3.37;;;20.40;1.00;;;;;;4974517;28;20500;-65
2023/08/11 06:54:16;;;;;;;6.00;3.70;;;20.50;1.00;;;;;;4977809;28;20497;-65
2023/08/11 06:56:43;;;;;;;6.87;3.30;;;20.80;1.00;;;;;;4960209;28;20539;-64
2023/08/11 06:59:10;;;;;;;5.50;3.73;;;20.90;1.00;;;;;;4957595;28;20475;-65
2023/08/11 07:01:37;;;;;;;7.13;3.40;;;21.10;1.00;;;;;;4968317;28;20474;-65
2023/08/11 07:04:05;;;;;;;4.13;3.73;;;21.40;1.00;;;;;;4958480;28;20726;-65
2023/08/11 07:06:32;;;;;;;6.80;3.40;;;21.50;1.00;;;;;;4957360;28;20557;-65
2023/08/11 07:09:01;;;;;;;6.40;3.37;;;21.60;1.00;;;;;;4961080;28;20573;-64
2023/08/11 07:11:28;;;;;;;4.33;3.40;;;21.70;1.00;;;;;;4973691;28;20820;-65
2023/08/11 07:13:56;;;;;;;5.00;3.30;;;21.90;1.00;;;;;;4977974;28;20826;-65
2023/08/11 07:16:23;;;;;;;4.73;3.00;;;22.10;1.00;;;;;;4961759;28;20517;-65
2023/08/11 07:18:50;;;;;;;3.73;3.33;;;22.30;1.00;;;;;;4958800;29;20487;-65
2023/08/11 07:21:18;;;;;;;7.20;3.90;;;22.40;1.00;;;;;;4957716;29;20542;-65
2023/08/11 07:23:45;;;;;;;4.87;3.47;;;22.50;1.00;;;;;;4958609;28;20465;-65
2023/08/11 07:26:13;;;;;;;3.63;3.33;;;22.70;1.00;;;;;;4957564;29;20469;-65
2023/08/11 07:28:41;;;;;;;4.37;2.90;;;22.90;1.00;;;;;;4958190;28;20466;-64
2023/08/11 07:31:08;;;;;;;3.73;3.40;;;23.10;1.00;;;;;;4958207;29;20459;-65
2023/08/11 07:33:35;;;;;;;6.47;3.70;;;23.30;1.00;;;;;;4957950;28;20495;-65
2023/08/11 07:36:03;;;;;;;4.30;3.33;;;23.50;1.00;;;;;;4958302;28;20458;-65
2023/08/11 07:38:30;;;;;;;4.93;4.07;;;23.50;1.00;;;;;;4958982;29;20846;-66
2023/08/11 07:40:57;;;;;;;4.30;3.90;;;23.60;1.00;;;;;;4958844;28;20462;-65
2023/08/11 07:43:26;;;;;;;5.30;3.70;;;23.90;1.00;;;;;;4959139;29;20463;-66
2023/08/11 07:45:53;;;;;;;4.00;3.17;;;24.10;99.90;;;;;;4959496;29;20817;-65
2023/08/11 07:48:20;;;;;;;6.70;3.40;;;24.10;99.90;;;;;;4967475;28;20479;-65
2023/08/11 07:50:48;;;;;;;5.63;3.70;;;24.30;99.90;;;;;;4959295;29;20469;-66
2023/08/11 07:53:15;;;;;;;5.10;3.00;;;24.50;99.90;;;;;;4959264;29;20533;-66
2023/08/11 07:55:42;;;;;;;4.27;3.87;;;24.60;99.90;;;;;;4958836;28;20462;-66
2023/08/11 07:58:09;;;;;;;4.87;2.80;;;24.80;99.90;;;;;;4959216;29;20466;-65
2023/08/11 08:00:38;;;;;;;6.40;3.43;;;24.70;99.90;;;;;;4959429;28;21001;-66
2023/08/11 08:03:05;;;;;;;3.07;2.77;;;24.80;99.90;;;;;;4959365;28;20487;-65
2023/08/11 08:05:33;;;;;;;3.93;3.63;;;25.10;1.00;;;;;;4957646;28;20498;-64
2023/08/11 08:08:01;;;;;;;4.50;4.10;;;25.20;1.00;;;;;;4963136;28;20474;-64
2023/08/11 08:10:28;;;;;;;4.10;3.70;;;25.40;93.90;;;;;;4964453;28;20522;-65
2023/08/11 08:12:55;;;;;;;3.77;3.43;;;25.60;99.90;;;;;;4957020;28;20805;-65
2023/08/11 08:15:24;;;;;;;4.20;3.80;;;25.80;1.00;;;;;;4962887;28;20479;-65
2023/08/11 08:17:53;;;;;;;4.10;3.47;;;26.00;1.00;;;;;;4961129;28;20953;-64
2023/08/11 08:20:20;;;;;;;5.43;3.90;;;26.30;1.00;;;;;;4961853;28;20490;-65
2023/08/11 08:22:47;;;;;;;4.43;3.70;;;26.30;1.00;;;;;;4965557;28;20517;-63
2023/08/11 08:25:17;;;;;;;4.33;3.50;;;26.50;1.00;;;;;;4968673;28;20474;-64
2023/08/11 08:27:45;;;;;;;3.93;3.40;;;26.60;1.00;;;;;;4959016;28;20498;-65
2023/08/11 08:30:13;;;;;;;3.90;3.50;;;26.60;1.00;;;;;;4971886;28;20500;-65
2023/08/11 08:32:41;;;;;;;4.17;3.80;;;26.80;1.00;;;;;;4966577;28;20500;-66
2023/08/11 08:35:10;;;;;;;4.80;4.20;;;27.00;1.00;;;;;;4967824;28;20551;-65
2023/08/11 08:37:38;;;;;;;4.33;3.20;;;27.30;1.00;;;;;;4960828;28;20465;-65
2023/08/11 08:40:08;;;;;;;3.30;3.00;;;27.40;1.00;;;;;;4966171;28;20462;-65
2023/08/11 08:42:35;;;;;;;4.17;3.80;;;27.50;1.00;;;;;;4958405;28;20458;-64
2023/08/11 08:45:04;;;;;;;5.03;4.37;;;27.70;1.00;;;;;;4958293;29;20462;-63
2023/08/11 08:47:32;;;;;;;4.47;3.87;;;27.60;1.00;;;;;;4958677;28;20462;-64
2023/08/11 08:50:01;;;;;;;6.17;4.40;;;27.60;99.90;;;;;;4959170;28;20473;-65
2023/08/11 08:52:30;;;;;;;4.80;4.30;;;27.70;99.90;;;;;;4958467;28;20495;-65
2023/08/11 08:55:00;;;;;;;6.10;4.03;;;27.90;99.90;;;;;;4958928;29;20622;-65
2023/08/11 08:57:28;;;;;;;3.63;3.30;;;28.00;99.90;;;;;;4957915;28;20466;-64
2023/08/11 08:59:57;;;;;;;4.10;3.70;;;28.30;99.90;;;;;;4958663;28;20839;-65
2023/08/11 09:02:27;;;;;;;4.33;3.67;;;28.30;99.90;;;;;;4958747;29;20911;-65
2023/08/11 09:04:55;;;;;;;4.73;3.90;;;28.60;99.90;;;;;;4959005;28;20482;-65
2023/08/11 09:07:23;;;;;;;4.20;3.80;;;28.60;99.90;;;;;;4958604;29;20473;-65
2023/08/11 09:09:52;;;;;;;5.07;4.17;;;28.80;99.90;;;;;;4959006;29;20545;-66
2023/08/11 09:12:19;;;;;;;4.50;3.50;;;28.70;99.90;;;;;;4962439;28;20529;-65
2023/08/11 09:14:46;;;;;;;5.27;3.73;;;28.90;99.90;;;;;;4965289;28;20513;-64
2023/08/11 09:17:14;;;;;;;5.17;3.50;;;29.00;99.90;;;;;;4962335;28;20494;-64
2023/08/11 09:19:44;;;;;;;5.57;4.00;;;29.10;99.90;;;;;;4966295;28;20463;-65
2023/08/11 09:22:12;;;;;;;5.00;4.50;;;29.40;99.90;;;;;;4975651;28;20796;-64
2023/08/11 09:24:40;;;;;;;6.83;4.17;;;29.50;99.90;;;;;;4981227;28;20491;-66
2023/08/11 09:27:11;;;;;;;3.83;3.50;;;29.50;99.90;;;;;;4980353;28;20468;-64
2023/08/11 09:29:38;;;;;;;4.77;3.80;;;29.60;99.90;;;;;;4965891;28;20792;-64
2023/08/11 09:32:08;;;;;;;3.83;3.50;;;29.80;99.90;;;;;;4969221;28;20563;-65
2023/08/11 09:34:39;;;;;;;6.90;3.73;;;29.90;99.90;;;;;;4967846;28;20494;-64
2023/08/11 09:37:07;;;;;;;4.10;3.37;;;30.20;99.90;;;;;;4969183;28;20560;-63
2023/08/11 09:39:34;;;;;;;3.87;3.57;;;30.10;99.90;;;;;;4967916;28;20490;-65
2023/08/11 09:42:01;;;;;;;4.00;3.70;;;30.10;99.90;;;;;;4977528;28;20934;-64
2023/08/11 09:44:31;;;;;;;3.80;3.50;;;30.10;99.90;;;;;;4975960;28;20539;-64
2023/08/11 09:46:58;;;;;;;4.17;3.80;;;30.20;99.90;;;;;;4960963;28;20759;-65
2023/08/11 09:49:25;;;;;;;4.93;4.53;;;30.50;99.90;;;;;;4961516;29;20899;-65
2023/08/11 09:51:56;;;;;;;4.07;3.67;;;30.10;99.90;;;;;;4961291;29;20891;-65
2023/08/11 09:54:24;;;;;;;6.20;4.23;;;30.10;99.90;;;;;;4961850;28;20946;-65
2023/08/11 09:56:52;;;;;;;4.40;3.50;;;29.50;99.90;;;;;;4961432;28;20754;-65
2023/08/11 09:59:21;;;;;;;3.73;3.43;;;30.10;99.90;;;;;;4960571;28;20557;-65
2023/08/11 10:01:54;;;;;;;4.63;4.13;;;30.50;99.90;;;;;;4960922;28;20486;-65
2023/08/11 10:04:29;;;;;;;4.57;3.83;;;30.70;99.90;;;;;;4962576;28;20466;-64
2023/08/11 10:06:59;;;;;;;3.97;3.67;;;30.70;99.90;;;;;;4961378;29;20560;-65
2023/08/11 10:09:28;;;;;;;7.23;3.67;;;30.90;99.90;;;;;;4963654;28;20474;-64
2023/08/11 10:11:59;;;;;;;4.90;4.10;;;31.20;99.90;;;;;;4970879;28;20477;-65
2023/08/11 10:14:28;;;;;;;4.37;3.93;;;31.40;99.90;;;;;;4965334;28;20504;-65
2023/08/11 10:16:59;;;;;;;3.93;3.63;;;31.70;99.90;;;;;;4961303;28;20562;-64
2023/08/11 10:19:27;;;;;;;5.73;3.47;;;31.50;99.90;;;;;;4963138;28;20469;-63
2023/08/11 10:21:56;;;;;;;4.13;3.80;;;31.60;99.90;;;;;;4965111;28;20490;-65
2023/08/11 10:24:25;;;;;;;3.80;3.50;;;31.60;99.90;;;;;;4966530;28;20516;-64
2023/08/11 10:26:53;;;;;;;5.20;4.10;;;31.20;99.90;;;;;;4959939;29;20517;-64
2023/08/11 10:29:21;;;;;;;5.00;4.50;;;31.30;99.90;;;;;;4959258;28;20466;-64
2023/08/11 10:31:55;;;;;;;5.80;3.60;;;30.80;99.90;;;;;;4958881;29;20610;-65
2023/08/11 10:34:25;;;;;;;4.80;3.70;;;31.20;99.90;;;;;;4958011;28;20493;-64
2023/08/11 10:36:55;;;;;;;5.50;3.50;;;31.20;99.90;;;;;;4959497;28;20465;-64
2023/08/11 10:39:23;;;;;;;4.70;3.27;;;31.30;99.90;;;;;;4963367;28;21119;-64
2023/08/11 10:41:51;;;;;;;4.00;3.23;;;31.60;99.90;;;;;;4977925;28;20465;-64
2023/08/11 10:44:20;;;;;;;4.10;3.80;;;31.40;99.90;;;;;;4973428;28;20489;-63
2023/08/11 10:46:50;;;;;;;4.50;3.93;;;31.60;99.90;;;;;;4977212;28;21005;-63
2023/08/11 10:49:32;;;;;;;4.43;4.03;;;31.60;99.90;;;;;;4961023;28;20946;-64
2023/08/11 10:52:01;;;;;;;4.30;3.90;;;31.70;99.90;;;;;;4969538;28;20547;-65
2023/08/11 10:54:29;;;;;;;4.00;3.70;;;31.90;99.90;;;;;;4978795;28;21017;-65
2023/08/11 10:56:59;;;;;;;4.70;4.30;;;32.00;99.90;;;;;;4975772;28;20984;-64
2023/08/11 10:59:30;;;;;;;4.33;4.00;;;32.20;99.90;;;;;;4959303;28;21027;-64
2023/08/11 11:01:59;;;;;;;6.33;4.60;;;32.60;99.90;;;;;;4965202;28;20466;-64
2023/08/11 11:04:31;;;;;;;4.60;4.20;;;32.40;1.00;;;;;;4959081;28;20532;-64
2023/08/11 11:06:59;;;;;;;10.80;4.20;;;32.40;99.90;;;;;;4963287;28;20556;-64
2023/08/11 11:09:28;;;;;;;4.00;3.50;;;32.80;99.90;;;;;;4970276;28;20487;-65
2023/08/11 11:11:56;;;;;;;4.10;3.67;;;33.10;99.90;;;;;;4959635;28;20798;-63
2023/08/11 11:14:24;;;;;;;3.43;3.13;;;32.70;99.90;;;;;;4959186;28;20616;-64
2023/08/11 11:16:54;;;;;;;4.00;3.70;;;32.70;99.90;;;;;;4966531;28;20520;-64
2023/08/11 11:19:24;;;;;;;3.67;3.33;;;32.80;1.00;;;;;;4967811;28;20516;-64
2023/08/11 11:21:54;;;;;;;4.60;3.40;;;33.20;1.00;;;;;;4967981;28;20934;-63
2023/08/11 11:24:21;;;;;;;4.13;3.83;;;33.20;1.00;;;;;;4970398;28;20514;-63
2023/08/11 11:26:49;;;;;;;4.43;4.03;;;33.30;99.90;;;;;;4962493;28;20560;-64
2023/08/11 11:29:21;;;;;;;4.50;4.20;;;33.10;1.00;;;;;;4957820;28;20509;-63
2023/08/11 11:31:48;;;;;;;3.50;3.17;;;32.30;1.00;;;;;;4959381;28;20556;-64
2023/08/11 11:34:16;;;;;;;4.03;3.73;;;32.60;1.00;;;;;;4973682;28;20493;-64
2023/08/11 11:36:43;;;;;;;4.73;4.27;;;32.60;1.00;;;;;;4975560;28;20474;-65
2023/08/11 11:39:12;;;;;;;6.33;3.70;;;32.80;1.00;;;;;;4977792;28;20473;-65
2023/08/11 11:41:40;;;;;;;4.93;4.53;;;32.80;1.00;;;;;;4970629;28;20474;-64
2023/08/11 11:44:07;;;;;;;4.17;3.87;;;32.70;99.90;;;;;;4959937;29;20547;-64
2023/08/11 11:46:35;;;;;;;3.93;3.50;;;32.80;1.00;;;;;;4959318;28;20468;-64
2023/08/11 11:49:03;;;;;;;4.33;3.93;;;32.90;1.00;;;;;;4959274;29;20896;-63
2023/08/11 11:51:32;;;;;;;4.30;3.77;;;33.00;1.00;;;;;;4959136;28;20501;-63
2023/08/11 11:54:00;;;;;;;4.37;3.70;;;33.10;99.90;;;;;;4963646;28;20529;-65
2023/08/11 11:56:31;;;;;;;3.97;3.67;;;33.40;43.90;;;;;;4973734;28;20873;-65
2023/08/11 11:58:59;;;;;;;5.63;3.70;;;33.60;1.00;;;;;;4958414;28;20466;-63
2023/08/11 12:01:27;;;;;;;4.00;3.70;;;33.70;1.00;;;;;;4958568;28;20469;-64
2023/08/11 12:03:58;;;;;;;4.43;3.73;;;33.50;99.90;;;;;;4977020;28;20954;-64
2023/08/11 12:06:28;;;;;;;5.00;4.40;;;33.60;99.90;;;;;;4977720;28;20469;-64
2023/08/11 12:09:03;;;;;;;4.43;4.13;;;33.80;99.90;;;;;;4977359;28;20563;-64
2023/08/11 12:11:32;;;;;;;8.90;4.30;;;33.60;99.90;;;;;;4976281;28;20475;-64
2023/08/11 12:14:00;;;;;;;6.07;4.00;;;33.70;99.90;;;;;;4977873;28;20528;-62
2023/08/11 12:16:29;;;;;;;4.70;4.17;;;33.60;99.90;;;;;;4977679;28;20970;-65
2023/08/11 12:19:01;;;;;;;5.13;4.20;;;33.30;99.90;;;;;;4978020;28;20865;-63
2023/08/11 12:21:28;;;;;;;6.47;4.10;;;33.20;99.90;;;;;;4970260;28;20880;-64
2023/08/11 12:23:56;;;;;;;6.07;3.63;;;33.40;99.90;;;;;;4957457;28;20498;-65
2023/08/11 12:26:23;;;;;;;4.87;4.47;;;33.40;99.90;;;;;;4957079;28;20521;-64
2023/08/11 12:28:52;;;;;;;6.37;4.37;;;33.60;99.90;;;;;;4957708;29;20462;-64
2023/08/11 12:31:20;;;;;;;5.50;4.73;;;33.60;99.90;;;;;;4958114;28;20466;-63
2023/08/11 12:33:48;;;;;;;4.63;4.10;;;33.60;99.90;;;;;;4965740;28;20489;-62
2023/08/11 12:36:15;;;;;;;5.70;4.17;;;33.60;99.90;;;;;;4959517;28;20965;-63
2023/08/11 12:38:42;;;;;;;4.83;4.43;;;33.70;99.90;;;;;;4959220;29;20497;-65
2023/08/11 12:41:10;;;;;;;4.23;3.83;;;33.50;99.90;;;;;;4959267;28;20458;-63
2023/08/11 12:43:37;;;;;;;5.13;4.70;;;33.50;99.90;;;;;;4973665;28;20489;-64
2023/08/11 12:46:06;;;;;;;4.37;4.00;;;33.50;99.90;;;;;;4978031;28;20967;-64
2023/08/11 12:48:34;;;;;;;6.70;5.23;;;33.60;99.90;;;;;;4978707;28;20578;-63
2023/08/11 12:51:01;;;;;;;5.50;4.97;;;33.60;99.90;;;;;;4978103;28;20761;-64
2023/08/11 12:53:28;;;;;;;5.23;4.73;;;33.80;99.90;;;;;;4966424;28;20939;-64
2023/08/11 12:55:56;;;;;;;6.07;4.90;;;33.90;99.90;;;;;;4957365;28;20565;-64